Terminal Aerodrome Forecast
Issued by NWS

Home | Current Version | Previous Version | Text Only | Print | Product List | Glossary Off
Versions: 1 2 3 4 5 6 7 8 9 10 11 12

658
FTUS43 KFGF 181122
TAFBJI
TAF
KBJI 181122Z 1812/1912 27007KT P6SM FEW250
     FM190000 28005KT P6SM BKN110
     FM190600 VRB03KT P6SM BKN040
     FM190700 VRB03KT P6SM BKN045=

USA.gov is the U.S. government's official web portal to all federal, state and local government web resources and services.